Time;durP1;ratioP1;P1;durP2;ratioP2;P2;SDS_P1;SDS_P2;PMS_P1;PMS_P2;Temp;Humidity;BMP_temperature;BMP_pressure;BME280_temperature;BME280_humidity;BME280_pressure;Samples;Min_cycle;Max_cycle;Signal;HPM_P1;HPM_P2
2022/06/04 00:00:10;;;;;;;9.55;4.53;;;;;;;;;;5045509;28;20020;-75
2022/06/04 00:02:40;;;;;;;10.68;4.32;;;;;;;;;;5052892;28;20141;-75
2022/06/04 00:05:08;;;;;;;6.80;5.13;;;;;;;;;;5043817;28;20096;-79
2022/06/04 00:07:34;;;;;;;9.10;4.75;;;;;;;;;;5040902;28;20040;-74
2022/06/04 00:15:44;;;;;;;8.30;4.25;;;;;;;;;;5051377;28;20064;-83
2022/06/04 00:18:11;;;;;;;8.65;4.28;;;;;;;;;;5054906;28;20031;-75
2022/06/04 00:20:37;;;;;;;12.00;4.93;;;;;;;;;;5059695;28;20108;-75
2022/06/04 00:23:05;;;;;;;6.38;4.00;;;;;;;;;;5060967;28;20027;-75
2022/06/04 00:25:31;;;;;;;7.35;4.30;;;;;;;;;;5058087;28;20483;-87
2022/06/04 00:27:59;;;;;;;7.20;4.65;;;;;;;;;;5058250;28;20444;-75
2022/06/04 00:30:25;;;;;;;12.00;4.32;;;;;;;;;;5060517;28;20483;-74
2022/06/04 00:32:51;;;;;;;10.75;4.68;;;;;;;;;;5054271;28;20044;-74
2022/06/04 00:35:17;;;;;;;7.60;3.88;;;;;;;;;;5064433;28;20095;-75
2022/06/04 00:37:43;;;;;;;9.93;4.30;;;;;;;;;;5064669;28;20407;-80
2022/06/04 00:40:12;;;;;;;7.28;4.57;;;;;;;;;;5057087;28;20192;-75
2022/06/04 00:42:38;;;;;;;8.90;3.95;;;;;;;;;;5057403;28;20029;-74
2022/06/04 00:45:04;;;;;;;11.50;4.57;;;;;;;;;;5063923;28;20431;-81
2022/06/04 00:47:30;;;;;;;9.73;4.38;;;;;;;;;;5062340;28;20059;-75
2022/06/04 00:49:56;;;;;;;9.02;4.65;;;;;;;;;;5065363;28;20519;-75
2022/06/04 00:52:23;;;;;;;11.45;4.90;;;;;;;;;;5060043;28;20020;-78
2022/06/04 00:54:52;;;;;;;12.60;5.63;;;;;;;;;;5055158;28;20040;-79
2022/06/04 00:57:21;;;;;;;12.63;6.00;;;;;;;;;;5060736;28;20020;-74
2022/06/04 00:59:50;;;;;;;9.68;5.60;;;;;;;;;;5059770;28;20021;-74
2022/06/04 01:02:19;;;;;;;7.80;5.50;;;;;;;;;;5057413;28;20021;-74
2022/06/04 01:04:56;;;;;;;10.35;5.18;;;;;;;;;;5059140;28;20036;-77
2022/06/04 01:07:40;;;;;;;10.43;5.53;;;;;;;;;;5059102;28;20186;-89
2022/06/04 01:10:07;;;;;;;9.45;5.68;;;;;;;;;;5063571;28;20028;-74
2022/06/04 01:12:51;;;;;;;9.90;5.70;;;;;;;;;;5061368;28;20020;-74
2022/06/04 01:15:24;;;;;;;10.40;6.13;;;;;;;;;;5054981;28;20119;-76
2022/06/04 01:17:53;;;;;;;13.55;5.57;;;;;;;;;;5059826;28;20468;-75
2022/06/04 01:20:24;;;;;;;10.27;5.30;;;;;;;;;;5057606;28;20812;-75
2022/06/04 01:22:50;;;;;;;;;;;;;;;;;;5060049;28;20036;-75
2022/06/04 01:25:33;;;;;;;9.55;4.78;;;;;;;;;;5061374;28;19996;-74
2022/06/04 01:28:07;;;;;;;11.35;4.10;;;;;;;;;;5060164;28;20396;-75
2022/06/04 01:30:38;;;;;;;9.70;4.75;;;;;;;;;;5052507;28;20021;-74
2022/06/04 01:33:14;;;;;;;12.80;4.20;;;;;;;;;;5062799;28;20020;-74
2022/06/04 01:35:44;;;;;;;9.88;4.60;;;;;;;;;;5057132;28;20028;-75
2022/06/04 01:38:13;;;;;;;12.73;4.78;;;;;;;;;;5058418;28;20044;-75
2022/06/04 01:43:29;;;;;;;15.95;4.03;;;;;;;;;;5052605;28;20058;-75
2022/06/04 01:45:58;;;;;;;9.18;4.50;;;;;;;;;;5059903;28;20017;-78
2022/06/04 01:48:25;;;;;;;8.80;4.35;;;;;;;;;;5059987;28;20029;-75
2022/06/04 01:50:53;;;;;;;8.27;4.78;;;;;;;;;;5061235;28;20401;-74
2022/06/04 01:53:21;;;;;;;9.73;4.03;;;;;;;;;;5061967;28;20048;-82
2022/06/04 01:56:10;;;;;;;7.68;4.15;;;;;;;;;;5065960;28;20024;-74
2022/06/04 01:58:46;;;;;;;8.02;4.10;;;;;;;;;;5055506;28;20381;-75
2022/06/04 02:01:14;;;;;;;6.10;3.50;;;;;;;;;;5064128;28;20085;-76
2022/06/04 02:03:50;;;;;;;5.78;3.70;;;;;;;;;;5062049;28;20016;-76
2022/06/04 02:06:22;;;;;;;10.48;4.30;;;;;;;;;;5056782;28;20029;-75
2022/06/04 02:08:59;;;;;;;8.77;3.67;;;;;;;;;;5063951;28;20083;-84
2022/06/04 02:11:26;;;;;;;6.25;3.70;;;;;;;;;;5060589;28;20024;-75
2022/06/04 02:13:54;;;;;;;5.30;3.40;;;;;;;;;;5060791;28;20080;-75
2022/06/04 02:16:35;;;;;;;8.68;3.50;;;;;;;;;;5057243;28;20245;-76
2022/06/04 02:19:02;;;;;;;7.60;4.13;;;;;;;;;;5060790;28;20020;-77
2022/06/04 02:21:28;;;;;;;8.32;3.42;;;;;;;;;;5053315;28;20024;-75
2022/06/04 02:23:55;;;;;;;8.88;3.92;;;;;;;;;;5059237;28;20038;-76
2022/06/04 02:26:22;;;;;;;7.55;4.00;;;;;;;;;;5057657;28;20086;-74
2022/06/04 02:28:48;;;;;;;7.18;4.25;;;;;;;;;;5055601;28;20035;-78
2022/06/04 02:31:23;;;;;;;9.50;4.30;;;;;;;;;;5060776;28;20048;-80
2022/06/04 02:34:16;;;;;;;9.95;4.13;;;;;;;;;;5056882;28;20048;-75
2022/06/04 02:36:48;;;;;;;7.18;4.18;;;;;;;;;;5054395;28;20696;-76
2022/06/04 02:39:24;;;;;;;8.40;3.90;;;;;;;;;;5056913;28;20365;-76
2022/06/04 02:41:59;;;;;;;6.65;3.85;;;;;;;;;;5057056;28;20052;-75
2022/06/04 02:44:30;;;;;;;6.63;4.00;;;;;;;;;;5059681;28;20021;-74
2022/06/04 02:47:10;;;;;;;9.68;4.32;;;;;;;;;;5061161;28;20032;-74
2022/06/04 02:49:41;;;;;;;10.63;4.05;;;;;;;;;;5052427;28;20530;-75
2022/06/04 02:52:07;;;;;;;;;;;;;;;;;;5053010;28;20468;-75
2022/06/04 02:54:39;;;;;;;7.75;4.20;;;;;;;;;;5061900;28;20354;-76
2022/06/04 02:57:06;;;;;;;8.05;3.85;;;;;;;;;;5061056;28;20484;-74
2022/06/04 02:59:34;;;;;;;10.05;4.55;;;;;;;;;;5061711;28;20024;-75
2022/06/04 03:02:01;;;;;;;13.07;4.85;;;;;;;;;;5058031;28;20070;-74
2022/06/04 03:04:28;;;;;;;6.78;4.47;;;;;;;;;;5061399;28;20024;-76
2022/06/04 03:06:54;;;;;;;9.05;4.15;;;;;;;;;;5055879;28;20277;-74
2022/06/04 03:09:21;;;;;;;8.00;4.32;;;;;;;;;;5059877;28;20073;-75
2022/06/04 03:11:48;;;;;;;5.95;3.90;;;;;;;;;;5059996;28;20021;-76
2022/06/04 03:14:15;;;;;;;10.07;3.97;;;;;;;;;;5058206;28;20530;-75
2022/06/04 03:16:42;;;;;;;6.88;4.20;;;;;;;;;;5060037;28;20017;-75
2022/06/04 03:19:09;;;;;;;7.05;3.72;;;;;;;;;;5055326;28;20025;-75
2022/06/04 03:21:36;;;;;;;9.23;3.65;;;;;;;;;;5052106;28;20029;-75
2022/06/04 03:24:03;;;;;;;7.93;3.65;;;;;;;;;;5060263;28;20028;-75
2022/06/04 03:26:29;;;;;;;8.15;3.55;;;;;;;;;;5062900;28;20469;-74
2022/06/04 03:28:55;;;;;;;7.90;3.60;;;;;;;;;;5065303;28;20024;-76
2022/06/04 03:31:21;;;;;;;9.38;4.50;;;;;;;;;;5064440;28;20469;-75
2022/06/04 03:33:47;;;;;;;7.68;3.80;;;;;;;;;;5064692;28;20032;-75
2022/06/04 03:36:13;;;;;;;5.55;3.25;;;;;;;;;;5064437;28;20020;-74
2022/06/04 03:38:40;;;;;;;5.65;3.38;;;;;;;;;;5064439;28;20056;-76
2022/06/04 03:41:06;;;;;;;7.32;3.40;;;;;;;;;;5062650;28;20469;-76
2022/06/04 03:43:32;;;;;;;10.38;3.60;;;;;;;;;;5064573;28;20024;-74
2022/06/04 03:45:58;;;;;;;5.85;3.28;;;;;;;;;;5064417;28;20086;-82
2022/06/04 03:48:24;;;;;;;8.60;3.13;;;;;;;;;;5064518;28;20285;-74
2022/06/04 03:50:50;;;;;;;5.38;3.20;;;;;;;;;;5062872;28;20389;-75
2022/06/04 03:53:17;;;;;;;4.43;2.67;;;;;;;;;;5063877;28;20017;-80
2022/06/04 03:55:43;;;;;;;7.00;3.75;;;;;;;;;;5064340;28;20060;-75
2022/06/04 03:58:09;;;;;;;5.68;3.08;;;;;;;;;;5063952;28;20024;-74
2022/06/04 04:00:40;;;;;;;4.68;3.28;;;;;;;;;;5063105;28;20050;-75
2022/06/04 04:03:17;;;;;;;9.65;4.43;;;;;;;;;;5064478;28;20021;-74
2022/06/04 04:05:51;;;;;;;8.02;3.30;;;;;;;;;;5064197;28;20020;-78
2022/06/04 04:08:18;;;;;;;8.77;3.60;;;;;;;;;;5062496;28;20039;-75
2022/06/04 04:10:45;;;;;;;7.72;3.60;;;;;;;;;;5064467;28;20500;-76
2022/06/04 04:13:12;;;;;;;6.32;3.15;;;;;;;;;;5063757;28;20044;-75
2022/06/04 04:15:38;;;;;;;9.30;3.25;;;;;;;;;;5063977;28;20542;-86
2022/06/04 04:18:05;;;;;;;9.15;3.78;;;;;;;;;;5062855;28;20147;-85
2022/06/04 04:20:32;;;;;;;8.13;3.55;;;;;;;;;;5048499;28;20029;-75
2022/06/04 04:22:59;;;;;;;7.82;3.97;;;;;;;;;;5064152;28;20024;-75
2022/06/04 04:25:26;;;;;;;7.78;4.60;;;;;;;;;;5063137;28;20094;-74
2022/06/04 04:27:52;;;;;;;12.98;6.78;;;;;;;;;;5063871;28;20055;-74
2022/06/04 04:30:20;;;;;;;15.13;7.28;;;;;;;;;;5064133;28;20025;-75
2022/06/04 04:32:46;;;;;;;9.65;4.78;;;;;;;;;;5062384;28;20443;-76
2022/06/04 04:35:14;;;;;;;10.48;6.25;;;;;;;;;;5051065;28;20037;-74
2022/06/04 04:37:40;;;;;;;13.85;8.63;;;;;;;;;;5049220;28;20024;-84
2022/06/04 04:40:06;;;;;;;12.82;6.57;;;;;;;;;;5045372;28;20091;-76
2022/06/04 04:42:32;;;;;;;10.88;5.35;;;;;;;;;;5043941;28;20021;-75
2022/06/04 04:44:59;;;;;;;6.15;4.68;;;;;;;;;;5044339;28;20026;-75
2022/06/04 04:47:25;;;;;;;6.47;4.47;;;;;;;;;;5042109;28;20051;-75
2022/06/04 04:49:51;;;;;;;6.28;4.30;;;;;;;;;;5043481;28;20021;-74
2022/06/04 04:52:17;;;;;;;5.05;3.97;;;;;;;;;;5043866;28;20282;-74
2022/06/04 04:54:43;;;;;;;6.10;4.40;;;;;;;;;;5043507;28;20086;-74
2022/06/04 04:57:09;;;;;;;12.00;4.97;;;;;;;;;;5043723;28;20032;-75
2022/06/04 04:59:35;;;;;;;12.05;6.50;;;;;;;;;;5046729;28;20073;-82
2022/06/04 05:02:02;;;;;;;13.95;7.88;;;;;;;;;;5043721;28;20412;-75
2022/06/04 05:04:28;;;;;;;15.27;9.52;;;;;;;;;;5043606;28;20033;-76
2022/06/04 05:06:54;;;;;;;18.77;9.57;;;;;;;;;;5045368;28;20055;-83
2022/06/04 05:09:20;;;;;;;17.95;9.82;;;;;;;;;;5045206;28;20217;-75
2022/06/04 05:11:46;;;;;;;18.50;11.02;;;;;;;;;;5045517;28;20355;-74
2022/06/04 05:14:12;;;;;;;28.25;15.93;;;;;;;;;;5042512;28;20041;-76
2022/06/04 05:16:39;;;;;;;35.58;17.45;;;;;;;;;;5044257;28;20067;-75
2022/06/04 05:19:06;;;;;;;28.73;17.20;;;;;;;;;;5043563;28;20112;-74
2022/06/04 05:21:46;;;;;;;25.02;14.90;;;;;;;;;;5046084;28;20039;-75
2022/06/04 05:24:20;;;;;;;23.42;14.05;;;;;;;;;;5049404;28;20483;-75
2022/06/04 05:26:47;;;;;;;26.42;13.88;;;;;;;;;;5061754;28;20020;-74
2022/06/04 05:29:13;;;;;;;23.52;12.98;;;;;;;;;;5051064;28;20025;-87
2022/06/04 05:31:39;;;;;;;30.77;13.00;;;;;;;;;;5062615;28;20083;-84
2022/06/04 05:34:06;;;;;;;32.20;12.23;;;;;;;;;;5061504;28;20032;-77
2022/06/04 05:36:32;;;;;;;19.08;11.82;;;;;;;;;;5048724;28;20078;-75
2022/06/04 05:38:59;;;;;;;18.98;9.80;;;;;;;;;;5055243;28;20033;-75
2022/06/04 05:41:25;;;;;;;15.70;8.20;;;;;;;;;;5048033;28;20067;-77
2022/06/04 05:43:53;;;;;;;14.65;8.70;;;;;;;;;;5049537;28;20503;-74
2022/06/04 05:46:20;;;;;;;18.38;8.18;;;;;;;;;;5055707;28;20036;-75
2022/06/04 05:48:47;;;;;;;15.63;6.30;;;;;;;;;;5046755;28;20025;-75
2022/06/04 05:51:14;;;;;;;12.40;8.10;;;;;;;;;;5051468;28;20035;-74
2022/06/04 05:53:40;;;;;;;12.13;7.95;;;;;;;;;;5045453;28;20552;-75
2022/06/04 05:56:26;;;;;;;14.18;8.82;;;;;;;;;;5047290;28;20420;-75
2022/06/04 05:58:55;;;;;;;13.32;9.23;;;;;;;;;;5049818;28;20490;-75
2022/06/04 06:01:22;;;;;;;14.30;9.02;;;;;;;;;;5054952;28;20029;-75
2022/06/04 06:03:48;;;;;;;13.55;8.25;;;;;;;;;;5048124;28;20013;-74
2022/06/04 06:06:22;;;;;;;14.90;8.60;;;;;;;;;;5045197;28;20047;-76
2022/06/04 06:08:48;;;;;;;17.10;8.82;;;;;;;;;;5046518;28;20111;-74
2022/06/04 06:11:15;;;;;;;14.63;7.75;;;;;;;;;;5047442;28;20025;-81
2022/06/04 06:13:43;;;;;;;14.35;7.97;;;;;;;;;;5045749;28;20059;-75
2022/06/04 06:16:14;;;;;;;14.88;7.35;;;;;;;;;;5047465;28;20017;-75
2022/06/04 06:18:40;;;;;;;15.17;7.10;;;;;;;;;;5058990;28;20021;-83
2022/06/04 06:21:14;;;;;;;9.20;6.43;;;;;;;;;;5051535;28;20028;-75
2022/06/04 06:23:41;;;;;;;12.10;5.80;;;;;;;;;;5064479;28;20020;-74
2022/06/04 06:26:12;;;;;;;13.00;5.90;;;;;;;;;;5053417;28;20021;-77
2022/06/04 06:28:39;;;;;;;;;;;;;;;;;;5062172;28;20460;-75
2022/06/04 06:31:05;;;;;;;13.57;5.72;;;;;;;;;;5064774;28;19989;-74
2022/06/04 06:33:31;;;;;;;10.13;5.40;;;;;;;;;;5064707;28;20389;-75
2022/06/04 06:35:59;;;;;;;12.65;5.22;;;;;;;;;;5064346;28;20538;-76
2022/06/04 06:38:25;;;;;;;13.85;5.55;;;;;;;;;;5065188;28;20533;-77
2022/06/04 06:40:53;;;;;;;14.55;5.65;;;;;;;;;;5060408;28;20021;-74
2022/06/04 06:43:19;;;;;;;16.55;5.78;;;;;;;;;;5065275;28;20085;-75
2022/06/04 06:45:45;;;;;;;12.45;5.80;;;;;;;;;;5065289;28;20147;-75
2022/06/04 06:48:12;;;;;;;10.77;6.85;;;;;;;;;;5065444;28;20095;-75
2022/06/04 06:50:39;;;;;;;15.98;8.63;;;;;;;;;;5063366;28;20028;-74
2022/06/04 06:53:05;;;;;;;14.23;7.07;;;;;;;;;;5065115;28;20099;-76
2022/06/04 06:55:31;;;;;;;14.27;6.53;;;;;;;;;;5065312;28;20052;-83
2022/06/04 06:57:57;;;;;;;9.48;5.40;;;;;;;;;;5064783;28;20438;-78
2022/06/04 07:00:24;;;;;;;10.07;5.03;;;;;;;;;;5061896;28;20020;-76
2022/06/04 07:02:50;;;;;;;13.23;6.38;;;;;;;;;;5064546;28;20473;-84
2022/06/04 07:05:16;;;;;;;8.57;4.78;;;;;;;;;;5065090;28;20021;-89
2022/06/04 07:07:43;;;;;;;11.07;4.93;;;;;;;;;;5064981;28;20025;-75
2022/06/04 07:10:10;;;;;;;12.20;4.88;;;;;;;;;;5064676;28;20017;-75
2022/06/04 07:12:36;;;;;;;11.13;5.40;;;;;;;;;;5063274;28;20621;-74
2022/06/04 07:15:02;;;;;;;9.13;5.68;;;;;;;;;;5063957;28;20052;-75
2022/06/04 07:17:29;;;;;;;9.68;5.47;;;;;;;;;;5062336;28;20499;-75
2022/06/04 07:19:55;;;;;;;9.88;5.40;;;;;;;;;;5055299;28;20021;-75
2022/06/04 07:22:21;;;;;;;19.38;6.07;;;;;;;;;;5059978;28;20469;-74
2022/06/04 07:24:47;;;;;;;16.17;5.18;;;;;;;;;;5062965;28;20032;-75
2022/06/04 07:27:13;;;;;;;10.90;4.60;;;;;;;;;;5064157;28;20021;-75
2022/06/04 07:29:39;;;;;;;13.10;4.88;;;;;;;;;;5063976;28;20020;-75
2022/06/04 07:32:05;;;;;;;11.15;5.38;;;;;;;;;;5064348;28;20024;-74
2022/06/04 07:34:32;;;;;;;14.30;5.38;;;;;;;;;;5064030;28;20032;-74
2022/06/04 07:36:58;;;;;;;9.48;4.65;;;;;;;;;;5062558;28;20368;-77
2022/06/04 07:39:24;;;;;;;8.85;4.88;;;;;;;;;;5064111;28;20372;-74
2022/06/04 07:41:52;;;;;;;12.55;5.10;;;;;;;;;;5064291;28;20567;-74
2022/06/04 07:44:19;;;;;;;9.65;4.25;;;;;;;;;;5061118;28;20271;-74
2022/06/04 07:46:45;;;;;;;10.77;4.65;;;;;;;;;;5057198;28;20233;-75
2022/06/04 07:49:12;;;;;;;12.45;4.45;;;;;;;;;;5044098;28;20119;-75
2022/06/04 07:51:39;;;;;;;10.57;4.80;;;;;;;;;;5044036;28;20023;-74
2022/06/04 07:54:08;;;;;;;7.78;4.00;;;;;;;;;;5043735;28;20052;-77
2022/06/04 07:56:35;;;;;;;10.32;4.88;;;;;;;;;;5042428;28;20055;-75
2022/06/04 07:59:01;;;;;;;13.15;4.82;;;;;;;;;;5041377;28;20047;-74
2022/06/04 08:01:28;;;;;;;19.10;5.15;;;;;;;;;;5043833;28;20480;-74
2022/06/04 08:03:54;;;;;;;12.65;4.90;;;;;;;;;;5044265;28;20055;-74
2022/06/04 08:06:22;;;;;;;9.27;4.50;;;;;;;;;;5043805;28;20040;-79
2022/06/04 08:08:54;;;;;;;9.93;4.72;;;;;;;;;;5050159;28;20016;-74
2022/06/04 08:11:33;;;;;;;6.07;4.63;;;;;;;;;;5062267;28;20036;-75
2022/06/04 08:14:01;;;;;;;11.77;4.53;;;;;;;;;;5063343;28;20045;-74
2022/06/04 08:16:27;;;;;;;9.40;5.03;;;;;;;;;;5063485;28;20525;-78
2022/06/04 08:18:53;;;;;;;8.73;4.10;;;;;;;;;;5060907;28;20028;-75
2022/06/04 08:21:20;;;;;;;9.75;4.20;;;;;;;;;;5051073;28;20070;-74
2022/06/04 08:23:46;;;;;;;6.28;3.75;;;;;;;;;;5063986;28;20111;-74
2022/06/04 08:26:12;;;;;;;4.28;3.40;;;;;;;;;;5063630;28;20021;-75
2022/06/04 08:28:39;;;;;;;7.65;3.72;;;;;;;;;;5063506;28;20074;-79
2022/06/04 08:31:09;;;;;;;6.68;4.05;;;;;;;;;;5061606;28;20372;-76
2022/06/04 08:33:36;;;;;;;5.10;2.92;;;;;;;;;;5063842;28;20385;-76
2022/06/04 08:36:03;;;;;;;5.38;3.20;;;;;;;;;;5063894;28;20063;-75
2022/06/04 08:38:29;;;;;;;6.60;3.35;;;;;;;;;;5063643;28;20103;-82
2022/06/04 08:40:57;;;;;;;6.53;3.00;;;;;;;;;;5063707;28;20031;-81
2022/06/04 08:43:45;;;;;;;6.43;3.50;;;;;;;;;;5061870;28;20029;-75
2022/06/04 08:46:17;;;;;;;7.45;3.55;;;;;;;;;;5063516;28;20040;-79
2022/06/04 08:48:43;;;;;;;9.10;3.65;;;;;;;;;;5064177;28;20021;-74
2022/06/04 08:51:18;;;;;;;8.65;3.63;;;;;;;;;;5063815;28;20595;-86
2022/06/04 08:53:45;;;;;;;9.35;3.85;;;;;;;;;;5063613;28;20048;-74
2022/06/04 08:59:11;;;;;;;9.27;3.93;;;;;;;;;;5067519;28;20503;-74
2022/06/04 09:01:39;;;;;;;8.98;3.67;;;;;;;;;;5066746;28;20594;-76
2022/06/04 09:04:10;;;;;;;9.50;3.67;;;;;;;;;;5067058;28;20029;-75
2022/06/04 09:06:51;;;;;;;8.10;3.80;;;;;;;;;;5067065;28;20152;-77
2022/06/04 09:09:26;;;;;;;9.55;4.10;;;;;;;;;;5065374;28;20028;-85
2022/06/04 09:12:13;;;;;;;8.50;4.50;;;;;;;;;;5067391;28;20036;-86
2022/06/04 09:14:46;;;;;;;9.30;4.88;;;;;;;;;;5035230;28;20052;-76
2022/06/04 09:17:15;;;;;;;7.78;4.55;;;;;;;;;;5047288;28;20142;-75
2022/06/04 09:19:43;;;;;;;7.63;4.10;;;;;;;;;;5045146;28;20414;-75
2022/06/04 09:22:21;;;;;;;10.38;4.70;;;;;;;;;;5046869;28;20048;-75
2022/06/04 09:24:47;;;;;;;7.35;4.55;;;;;;;;;;5047256;28;20036;-74
2022/06/04 09:27:22;;;;;;;7.40;4.38;;;;;;;;;;5046908;28;20587;-75
2022/06/04 09:29:48;;;;;;;10.75;4.68;;;;;;;;;;5047075;28;20025;-77
2022/06/04 09:32:14;;;;;;;8.48;4.95;;;;;;;;;;5045076;28;20354;-82
2022/06/04 09:34:43;;;;;;;9.38;4.53;;;;;;;;;;5046456;28;20045;-75
2022/06/04 09:37:10;;;;;;;10.32;4.18;;;;;;;;;;5046517;28;20078;-75
2022/06/04 09:39:41;;;;;;;7.53;4.10;;;;;;;;;;5046492;28;20114;-75
2022/06/04 09:42:20;;;;;;;7.47;4.10;;;;;;;;;;5047254;28;20025;-75
2022/06/04 09:44:49;;;;;;;6.32;3.78;;;;;;;;;;5046521;28;20025;-75
2022/06/04 09:47:22;;;;;;;6.47;3.53;;;;;;;;;;5044374;28;20021;-75
2022/06/04 09:49:56;;;;;;;7.75;4.18;;;;;;;;;;5033974;28;20392;-74
2022/06/04 09:52:39;;;;;;;6.82;4.25;;;;;;;;;;5045999;28;20325;-74
2022/06/04 09:55:22;;;;;;;19.02;8.25;;;;;;;;;;5045919;28;20045;-75
2022/06/04 09:58:15;;;;;;;11.40;5.55;;;;;;;;;;5044010;28;20052;-74
2022/06/04 10:00:41;;;;;;;7.70;4.50;;;;;;;;;;5030258;28;20485;-74
2022/06/04 10:03:17;;;;;;;9.93;4.55;;;;;;;;;;5046282;28;20025;-74
2022/06/04 10:05:52;;;;;;;6.68;4.30;;;;;;;;;;5046214;28;20067;-75
2022/06/04 10:08:21;;;;;;;6.00;3.38;;;;;;;;;;5020310;28;20028;-75
2022/06/04 10:10:47;;;;;;;7.53;3.40;;;;;;;;;;5045781;28;20025;-75
2022/06/04 10:16:14;;;;;;;9.10;4.10;;;;;;;;;;5045324;28;20501;-75
2022/06/04 10:18:40;;;;;;;8.23;3.70;;;;;;;;;;5044021;28;20045;-75
2022/06/04 10:21:16;;;;;;;8.70;2.92;;;;;;;;;;5045791;28;20036;-74
2022/06/04 10:23:46;;;;;;;7.28;3.10;;;;;;;;;;5045771;28;20369;-75
2022/06/04 10:26:12;;;;;;;6.10;2.80;;;;;;;;;;5044117;28;20036;-75
2022/06/04 10:28:47;;;;;;;7.63;3.00;;;;;;;;;;5045607;28;20056;-74
2022/06/04 10:31:20;;;;;;;8.25;3.10;;;;;;;;;;5045401;28;20029;-74
2022/06/04 10:33:53;;;;;;;7.80;3.40;;;;;;;;;;5045354;28;20028;-75
2022/06/04 10:36:43;;;;;;;10.27;3.60;;;;;;;;;;5045423;28;20052;-83
2022/06/04 10:39:21;;;;;;;12.55;3.40;;;;;;;;;;5045692;28;20025;-75
2022/06/04 10:41:47;;;;;;;6.88;3.47;;;;;;;;;;5044598;28;20025;-75
2022/06/04 10:44:19;;;;;;;5.45;3.35;;;;;;;;;;5045651;28;20025;-74
2022/06/04 10:47:04;;;;;;;8.50;4.13;;;;;;;;;;5045288;28;20075;-77
2022/06/04 10:49:48;;;;;;;8.13;4.80;;;;;;;;;;5045157;28;20505;-74
2022/06/04 10:52:17;;;;;;;9.65;4.10;;;;;;;;;;5045259;28;20025;-75
2022/06/04 10:54:48;;;;;;;7.15;3.40;;;;;;;;;;5043353;28;20045;-74
2022/06/04 10:57:14;;;;;;;7.22;3.28;;;;;;;;;;5045066;28;20128;-75
2022/06/04 10:59:49;;;;;;;7.32;3.60;;;;;;;;;;5045123;28;20481;-76
2022/06/04 11:02:20;;;;;;;4.30;2.95;;;;;;;;;;5044980;28;20246;-75
2022/06/04 11:04:52;;;;;;;7.72;2.90;;;;;;;;;;5044032;28;20028;-75
2022/06/04 11:07:34;;;;;;;8.43;3.40;;;;;;;;;;5043052;28;20278;-76
2022/06/04 11:10:01;;;;;;;7.28;2.90;;;;;;;;;;5044537;28;20534;-75
2022/06/04 11:12:41;;;;;;;5.15;2.42;;;;;;;;;;5045017;28;20100;-77
2022/06/04 11:15:13;;;;;;;10.57;3.05;;;;;;;;;;5042966;28;20049;-75
2022/06/04 11:17:51;;;;;;;9.60;3.22;;;;;;;;;;5044482;28;20033;-74
2022/06/04 11:20:27;;;;;;;6.35;3.08;;;;;;;;;;5043700;28;20160;-80
2022/06/04 11:22:59;;;;;;;8.25;3.13;;;;;;;;;;5050764;28;20032;-76
2022/06/04 11:25:30;;;;;;;5.70;2.72;;;;;;;;;;5064682;28;20029;-75
2022/06/04 11:28:08;;;;;;;4.57;3.10;;;;;;;;;;5062669;28;20028;-75
2022/06/04 11:30:46;;;;;;;7.47;3.17;;;;;;;;;;5064291;28;20025;-75
2022/06/04 11:33:38;;;;;;;4.53;3.15;;;;;;;;;;5043324;28;20025;-79
2022/06/04 11:36:18;;;;;;;6.15;3.58;;;;;;;;;;5048910;28;20048;-87
2022/06/04 11:38:57;;;;;;;6.70;3.35;;;;;;;;;;5043042;28;20029;-78
2022/06/04 11:41:23;;;;;;;8.02;3.85;;;;;;;;;;5044875;28;20017;-79
2022/06/04 11:44:01;;;;;;;7.10;3.38;;;;;;;;;;5044157;28;20029;-75
2022/06/04 11:46:41;;;;;;;6.80;3.63;;;;;;;;;;5044069;28;20021;-75
2022/06/04 11:49:19;;;;;;;7.13;4.05;;;;;;;;;;5044400;28;20099;-75
2022/06/04 11:51:46;;;;;;;8.45;3.63;;;;;;;;;;5042963;28;20525;-75
2022/06/04 11:54:24;;;;;;;6.95;3.80;;;;;;;;;;5044502;28;20044;-74
2022/06/04 11:57:09;;;;;;;7.55;4.32;;;;;;;;;;5041096;28;20409;-74
2022/06/04 11:59:43;;;;;;;6.40;3.22;;;;;;;;;;5042457;28;20025;-75
2022/06/04 12:02:12;;;;;;;7.57;2.90;;;;;;;;;;5043856;28;20059;-75
2022/06/04 12:04:45;;;;;;;8.77;3.00;;;;;;;;;;5044030;28;20499;-75
2022/06/04 12:07:14;;;;;;;6.80;3.40;;;;;;;;;;5043754;28;20037;-75
2022/06/04 12:09:56;;;;;;;10.90;3.67;;;;;;;;;;5042338;28;20017;-75
2022/06/04 12:12:30;;;;;;;7.57;3.15;;;;;;;;;;5044489;28;20245;-75
2022/06/04 12:15:06;;;;;;;10.77;3.58;;;;;;;;;;5043337;28;20098;-74
2022/06/04 12:17:50;;;;;;;10.18;3.75;;;;;;;;;;5043729;28;20523;-75
2022/06/04 12:26:18;;;;;;;7.35;4.10;;;;;;;;;;5063772;28;20043;-74
2022/06/04 12:28:44;;;;;;;9.63;3.50;;;;;;;;;;5061299;28;20194;-75
2022/06/04 12:31:10;;;;;;;6.43;3.88;;;;;;;;;;5066813;28;20013;-75
2022/06/04 12:33:40;;;;;;;6.55;3.70;;;;;;;;;;5066622;28;20029;-74
2022/06/04 12:36:10;;;;;;;8.18;3.67;;;;;;;;;;5067467;28;20119;-78
2022/06/04 12:38:37;;;;;;;5.10;2.97;;;;;;;;;;5067536;28;20019;-74
2022/06/04 12:41:08;;;;;;;6.72;2.72;;;;;;;;;;5067565;28;20052;-75
2022/06/04 12:43:36;;;;;;;6.25;2.92;;;;;;;;;;5067916;28;20020;-75
2022/06/04 12:46:11;;;;;;;7.07;3.33;;;;;;;;;;5066096;28;20036;-74
2022/06/04 12:48:51;;;;;;;7.40;3.97;;;;;;;;;;5067806;28;20488;-74
2022/06/04 12:51:35;;;;;;;8.65;5.20;;;;;;;;;;5067277;28;20037;-77
2022/06/04 12:54:03;;;;;;;5.07;3.83;;;;;;;;;;5066714;28;20040;-75
2022/06/04 12:56:32;;;;;;;10.80;5.03;;;;;;;;;;5065245;28;20021;-75
2022/06/04 12:59:00;;;;;;;8.57;4.13;;;;;;;;;;5067394;28;20032;-75
2022/06/04 13:01:26;;;;;;;6.88;4.25;;;;;;;;;;5067359;28;20070;-76
2022/06/04 13:04:11;;;;;;;8.52;4.40;;;;;;;;;;5067595;28;20353;-74
2022/06/04 13:06:48;;;;;;;7.00;4.30;;;;;;;;;;5067516;28;20025;-77
2022/06/04 13:09:33;;;;;;;8.20;4.45;;;;;;;;;;5067246;28;20035;-84
2022/06/04 13:12:01;;;;;;;8.98;4.80;;;;;;;;;;5065478;28;20020;-75
2022/06/04 13:14:34;;;;;;;6.72;4.80;;;;;;;;;;5067065;28;20577;-75
2022/06/04 13:17:11;;;;;;;7.15;4.80;;;;;;;;;;5067050;28;20403;-76
2022/06/04 13:19:49;;;;;;;9.05;4.72;;;;;;;;;;5065843;28;20113;-75
2022/06/04 13:22:18;;;;;;;9.05;4.18;;;;;;;;;;5052084;28;20485;-76
2022/06/04 13:24:45;;;;;;;6.68;4.10;;;;;;;;;;5045892;28;20017;-75
2022/06/04 13:27:12;;;;;;;7.63;4.50;;;;;;;;;;5046969;28;20609;-75
2022/06/04 13:29:39;;;;;;;9.40;4.32;;;;;;;;;;5046661;28;20408;-75
2022/06/04 13:32:11;;;;;;;5.57;4.20;;;;;;;;;;5046902;28;20380;-75
2022/06/04 13:34:38;;;;;;;8.15;5.28;;;;;;;;;;5046772;28;20386;-78
2022/06/04 13:37:06;;;;;;;8.77;4.63;;;;;;;;;;5045320;28;20044;-74
2022/06/04 13:39:33;;;;;;;12.95;5.00;;;;;;;;;;5046583;28;20469;-75
2022/06/04 13:42:01;;;;;;;5.10;4.40;;;;;;;;;;5059174;28;20477;-79
2022/06/04 13:44:27;;;;;;;9.50;4.82;;;;;;;;;;5066678;28;20052;-80
2022/06/04 13:46:54;;;;;;;4.40;3.63;;;;;;;;;;5064702;28;20025;-74
2022/06/04 13:49:23;;;;;;;10.00;4.00;;;;;;;;;;5066658;28;20025;-75
2022/06/04 13:51:54;;;;;;;6.25;3.60;;;;;;;;;;5066430;28;20052;-85
2022/06/04 13:54:31;;;;;;;5.93;3.50;;;;;;;;;;5066506;28;20111;-75
2022/06/04 13:56:59;;;;;;;4.22;3.63;;;;;;;;;;5046414;28;20029;-74
2022/06/04 13:59:25;;;;;;;4.88;3.33;;;;;;;;;;5044910;28;20418;-82
2022/06/04 14:01:55;;;;;;;6.38;3.30;;;;;;;;;;5046343;28;20021;-75
2022/06/04 14:07:11;;;;;;;3.78;2.90;;;;;;;;;;5051286;28;20710;-75
2022/06/04 14:09:38;;;;;;;8.40;3.20;;;;;;;;;;5066606;28;20707;-75
2022/06/04 14:12:16;;;;;;;5.78;3.22;;;;;;;;;;5066070;28;20025;-77
2022/06/04 14:14:48;;;;;;;7.53;3.10;;;;;;;;;;5066092;28;20060;-74
2022/06/04 14:17:17;;;;;;;9.15;3.63;;;;;;;;;;5066398;28;20067;-75
2022/06/04 14:19:43;;;;;;;8.18;3.50;;;;;;;;;;5056704;28;20021;-75
2022/06/04 14:22:12;;;;;;;8.30;3.53;;;;;;;;;;5060271;28;20111;-74
2022/06/04 14:24:45;;;;;;;5.13;3.70;;;;;;;;;;5046326;28;20036;-75
2022/06/04 14:27:32;;;;;;;5.13;3.00;;;;;;;;;;5046156;28;20056;-80
2022/06/04 14:30:17;;;;;;;6.97;3.88;;;;;;;;;;5046000;28;20318;-75
2022/06/04 14:32:43;;;;;;;5.97;3.47;;;;;;;;;;5045378;28;20395;-75
2022/06/04 14:35:14;;;;;;;4.95;3.47;;;;;;;;;;5045853;28;20044;-74
2022/06/04 14:37:42;;;;;;;7.80;3.92;;;;;;;;;;5045806;28;20025;-75
2022/06/04 14:40:09;;;;;;;4.43;3.50;;;;;;;;;;5044366;28;20123;-75
2022/06/04 14:42:35;;;;;;;7.18;3.83;;;;;;;;;;5045639;28;20036;-74
2022/06/04 14:45:01;;;;;;;5.22;3.60;;;;;;;;;;5045692;28;20047;-77
2022/06/04 14:47:52;;;;;;;6.45;3.38;;;;;;;;;;5045155;28;20041;-80
2022/06/04 14:50:36;;;;;;;5.35;3.65;;;;;;;;;;5043888;28;20033;-75
2022/06/04 14:53:04;;;;;;;6.00;3.38;;;;;;;;;;5045257;28;20032;-75
2022/06/04 14:55:41;;;;;;;7.32;4.00;;;;;;;;;;5045007;28;20468;-76
2022/06/04 14:58:17;;;;;;;6.07;3.70;;;;;;;;;;5045103;28;20063;-75
2022/06/04 15:00:55;;;;;;;6.47;3.35;;;;;;;;;;5045222;28;20403;-75
2022/06/04 15:03:21;;;;;;;7.35;3.30;;;;;;;;;;5045006;28;20477;-74
2022/06/04 15:06:00;;;;;;;5.40;3.50;;;;;;;;;;5045049;28;20021;-74
2022/06/04 15:08:47;;;;;;;6.82;3.88;;;;;;;;;;5045247;28;20393;-76
2022/06/04 15:11:13;;;;;;;6.53;3.60;;;;;;;;;;5043279;28;20094;-75
2022/06/04 15:13:50;;;;;;;5.03;3.05;;;;;;;;;;5044915;28;20152;-75
2022/06/04 15:16:31;;;;;;;5.10;3.10;;;;;;;;;;5045299;28;20104;-84
2022/06/04 15:19:14;;;;;;;8.13;3.80;;;;;;;;;;5044682;28;20234;-77